createdAt,value
2022-08-19T00:01:37.947Z,23.20
2022-08-19T00:04:09.319Z,23.20
2022-08-19T00:06:37.995Z,23.20
2022-08-19T00:09:07.814Z,23.20
2022-08-19T00:11:36.957Z,23.10
2022-08-19T00:14:05.330Z,23.10
2022-08-19T00:16:32.310Z,23.10
2022-08-19T00:18:59.874Z,23.10
2022-08-19T00:21:28.042Z,23.00
2022-08-19T00:23:58.716Z,23.00
2022-08-19T00:26:27.388Z,23.00
2022-08-19T00:28:54.445Z,23.00
2022-08-19T00:31:21.890Z,22.90
2022-08-19T00:33:51.435Z,22.90
2022-08-19T00:36:18.811Z,22.90
2022-08-19T00:38:45.844Z,22.90
2022-08-19T00:41:18.409Z,22.90
2022-08-19T00:44:02.240Z,22.80
2022-08-19T00:46:29.332Z,22.80
2022-08-19T00:48:58.600Z,22.80
2022-08-19T00:51:28.261Z,22.80
2022-08-19T00:53:57.844Z,22.80
2022-08-19T00:56:27.312Z,22.70
2022-08-19T00:58:57.525Z,22.70
2022-08-19T01:01:24.515Z,22.70
2022-08-19T01:03:58.185Z,22.70
2022-08-19T01:06:26.904Z,22.60
2022-08-19T01:08:55.330Z,22.60
2022-08-19T01:11:22.381Z,22.50
2022-08-19T01:13:50.708Z,22.50
2022-08-19T01:16:20.447Z,22.50
2022-08-19T01:18:47.505Z,22.40
2022-08-19T01:21:40.313Z,22.40
2022-08-19T01:24:07.472Z,22.40
2022-08-19T01:26:40.731Z,22.40
2022-08-19T01:29:09.619Z,22.40
2022-08-19T01:31:37.985Z,22.40
2022-08-19T01:34:05.132Z,22.40
2022-08-19T01:36:33.291Z,22.40
2022-08-19T01:39:01.566Z,22.40
2022-08-19T01:41:28.630Z,22.40
2022-08-19T01:44:10.066Z,22.40
2022-08-19T01:46:44.671Z,22.40
2022-08-19T01:49:12.098Z,22.30
2022-08-19T01:51:39.738Z,22.30
2022-08-19T01:54:08.592Z,22.30
2022-08-19T01:56:35.973Z,22.30
2022-08-19T01:59:09.485Z,22.30
2022-08-19T02:01:36.868Z,22.20
2022-08-19T02:04:04.024Z,22.20
2022-08-19T02:06:31.288Z,22.20
2022-08-19T02:08:58.490Z,22.20
2022-08-19T02:11:28.690Z,22.20
2022-08-19T02:13:56.595Z,22.10
2022-08-19T02:16:24.067Z,22.10
2022-08-19T02:18:51.395Z,22.10
2022-08-19T02:21:20.803Z,22.10
2022-08-19T02:23:48.216Z,22.10
2022-08-19T02:26:15.476Z,22.10
2022-08-19T02:28:43.629Z,22.10
2022-08-19T02:31:13.281Z,22.10
2022-08-19T02:33:40.193Z,22.10
2022-08-19T02:36:08.324Z,22.10
2022-08-19T02:38:36.261Z,22.00
2022-08-19T02:41:06.153Z,22.00
2022-08-19T02:43:36.927Z,22.00
2022-08-19T02:46:22.193Z,22.00
2022-08-19T02:48:54.708Z,22.00
2022-08-19T02:51:27.658Z,22.00
2022-08-19T02:53:54.954Z,22.00
2022-08-19T02:56:22.672Z,22.00
2022-08-19T02:58:49.771Z,22.00
2022-08-19T03:01:46.549Z,22.00
2022-08-19T03:04:16.671Z,21.90
2022-08-19T03:06:46.374Z,21.90
2022-08-19T03:09:14.599Z,21.90
2022-08-19T03:11:41.537Z,21.90
2022-08-19T03:14:10.097Z,21.80
2022-08-19T03:16:46.958Z,21.80
2022-08-19T03:19:15.213Z,21.80
2022-08-19T03:21:45.679Z,21.80
2022-08-19T03:24:13.914Z,21.80
2022-08-19T03:26:46.748Z,21.80
2022-08-19T03:29:14.270Z,21.80
2022-08-19T03:31:52.564Z,21.80
2022-08-19T03:34:23.456Z,21.70
2022-08-19T03:36:50.371Z,21.70
2022-08-19T03:39:17.774Z,21.60
2022-08-19T03:41:48.338Z,21.60
2022-08-19T03:44:21.798Z,21.60
2022-08-19T03:46:51.768Z,21.60
2022-08-19T03:49:19.533Z,21.60
2022-08-19T03:51:48.323Z,21.60
2022-08-19T03:54:18.770Z,21.60
2022-08-19T03:56:47.829Z,21.50
2022-08-19T03:59:18.431Z,21.50
2022-08-19T04:01:45.369Z,21.50
2022-08-19T04:04:12.309Z,21.40
2022-08-19T04:06:40.572Z,21.40
2022-08-19T04:09:10.441Z,21.40
2022-08-19T04:11:44.923Z,21.40
2022-08-19T04:14:20.737Z,21.50
2022-08-19T04:16:49.467Z,21.40
2022-08-19T04:19:18.317Z,21.40
2022-08-19T04:21:47.470Z,21.40
2022-08-19T04:24:15.000Z,21.40
2022-08-19T04:26:42.297Z,21.40
2022-08-19T04:29:13.888Z,21.40
2022-08-19T04:31:41.880Z,21.40
2022-08-19T04:34:14.723Z,21.40
2022-08-19T04:36:43.426Z,21.30
2022-08-19T04:39:13.779Z,21.30
2022-08-19T04:41:59.184Z,21.30
2022-08-19T04:44:26.932Z,21.20
2022-08-19T04:46:53.823Z,21.20
2022-08-19T04:49:23.437Z,21.10
2022-08-19T04:51:55.292Z,21.00
2022-08-19T04:54:37.541Z,21.00
2022-08-19T04:57:10.572Z,21.00
2022-08-19T04:59:39.064Z,21.00
2022-08-19T05:02:08.841Z,21.00
2022-08-19T05:04:36.494Z,21.00
2022-08-19T05:07:03.366Z,21.00
2022-08-19T05:09:36.123Z,21.00
2022-08-19T05:12:18.719Z,21.00
2022-08-19T05:14:48.331Z,20.90
2022-08-19T05:17:36.198Z,20.90
2022-08-19T05:20:23.592Z,20.90
2022-08-19T05:22:50.679Z,20.80
2022-08-19T05:25:20.821Z,20.80
2022-08-19T05:27:48.716Z,20.80
2022-08-19T05:30:16.410Z,20.80
2022-08-19T05:32:43.235Z,20.80
2022-08-19T05:35:11.493Z,20.70
2022-08-19T05:37:41.575Z,20.70
2022-08-19T05:40:10.165Z,20.70
2022-08-19T05:42:37.379Z,20.70
2022-08-19T05:45:05.377Z,20.80
2022-08-19T05:47:32.963Z,20.80
2022-08-19T05:50:00.304Z,20.80
2022-08-19T05:52:29.099Z,20.80
2022-08-19T05:54:57.365Z,20.90
2022-08-19T05:57:25.230Z,20.90
2022-08-19T05:59:58.133Z,20.90
2022-08-19T06:02:34.282Z,21.00
2022-08-19T06:05:02.454Z,20.90
2022-08-19T06:07:29.912Z,20.90
2022-08-19T06:10:00.800Z,20.90
2022-08-19T06:12:35.425Z,20.90
2022-08-19T06:15:10.568Z,20.90
2022-08-19T06:17:37.690Z,20.80
2022-08-19T06:20:14.335Z,20.70
2022-08-19T06:22:43.928Z,20.70
2022-08-19T06:25:12.196Z,20.70
2022-08-19T06:27:45.037Z,20.70
2022-08-19T06:30:26.182Z,20.80
2022-08-19T06:32:53.180Z,20.80
2022-08-19T06:35:20.405Z,20.80
2022-08-19T06:37:48.046Z,20.90
2022-08-19T06:40:15.053Z,20.90
2022-08-19T06:42:43.258Z,21.00
2022-08-19T06:45:21.456Z,21.00
2022-08-19T06:47:55.325Z,21.10
2022-08-19T06:50:25.309Z,21.10
2022-08-19T06:52:52.905Z,21.10
2022-08-19T06:55:20.201Z,21.20
2022-08-19T06:57:48.768Z,21.20
2022-08-19T07:00:16.025Z,21.20
2022-08-19T07:02:48.204Z,21.20
2022-08-19T07:05:22.979Z,21.30
2022-08-19T07:07:50.973Z,21.40
2022-08-19T07:10:18.511Z,21.40
2022-08-19T07:12:45.569Z,21.50
2022-08-19T07:15:13.386Z,21.60
2022-08-19T07:17:42.031Z,21.60
2022-08-19T07:20:10.267Z,21.60
2022-08-19T07:22:41.180Z,21.60
2022-08-19T07:25:09.953Z,21.60
2022-08-19T07:27:38.035Z,21.50
2022-08-19T07:30:07.976Z,21.50
2022-08-19T07:32:39.498Z,21.60
2022-08-19T07:35:07.331Z,21.70
2022-08-19T07:37:34.747Z,21.70
2022-08-19T07:40:02.516Z,21.70
2022-08-19T07:42:30.797Z,21.80
2022-08-19T07:44:59.560Z,21.80
2022-08-19T07:47:48.969Z,21.90
2022-08-19T07:50:14.138Z,21.90
2022-08-19T07:52:41.366Z,21.90
2022-08-19T07:55:40.674Z,21.90
2022-08-19T07:57:56.972Z,21.90
2022-08-19T08:00:24.799Z,22.00
2022-08-19T08:02:55.354Z,22.00
2022-08-19T08:05:44.046Z,22.00
2022-08-19T08:08:30.789Z,22.10
2022-08-19T08:10:58.047Z,22.10
2022-08-19T08:13:26.516Z,22.20
2022-08-19T08:15:54.781Z,22.20
2022-08-19T08:18:27.717Z,22.30
2022-08-19T08:20:58.095Z,22.30
2022-08-19T08:23:26.759Z,22.30
2022-08-19T08:25:56.237Z,22.40
2022-08-19T08:28:24.055Z,22.40
2022-08-19T08:30:51.525Z,22.50
2022-08-19T08:33:34.742Z,22.50
2022-08-19T08:36:05.929Z,22.70
2022-08-19T08:38:39.074Z,22.80
2022-08-19T08:41:34.998Z,22.90
2022-08-19T08:44:05.147Z,23.00
2022-08-19T08:46:46.853Z,23.00
2022-08-19T08:49:41.592Z,23.00
2022-08-19T08:52:43.731Z,23.00
2022-08-19T08:55:20.360Z,23.00
2022-08-19T08:57:52.305Z,23.00
2022-08-19T09:00:25.075Z,23.10
2022-08-19T09:02:52.264Z,23.20
2022-08-19T09:05:26.092Z,23.20
2022-08-19T09:08:13.788Z,23.20
2022-08-19T09:10:56.155Z,23.20
2022-08-19T09:13:41.862Z,23.20
2022-08-19T09:16:21.823Z,23.20
2022-08-19T09:19:04.571Z,23.20
2022-08-19T09:21:34.361Z,23.20
2022-08-19T09:24:03.353Z,23.20
2022-08-19T09:26:47.813Z,23.20
2022-08-19T09:29:18.258Z,23.20
2022-08-19T09:31:45.233Z,23.40
2022-08-19T09:34:21.315Z,23.50
2022-08-19T09:36:56.316Z,23.60
2022-08-19T09:39:23.651Z,23.70
2022-08-19T09:41:53.888Z,23.70
2022-08-19T09:44:24.228Z,23.70
2022-08-19T09:46:54.020Z,23.70
2022-08-19T09:49:22.677Z,23.70
2022-08-19T09:51:52.788Z,23.70
2022-08-19T09:54:23.867Z,23.70
2022-08-19T09:56:52.759Z,23.80
2022-08-19T09:59:19.855Z,24.00
2022-08-19T10:01:47.049Z,24.00
2022-08-19T10:04:20.589Z,24.10
2022-08-19T10:06:53.526Z,24.20
2022-08-19T10:09:26.330Z,24.30
2022-08-19T10:12:02.857Z,24.30
2022-08-19T10:14:30.172Z,24.50
2022-08-19T10:16:57.546Z,24.70
2022-08-19T10:19:26.706Z,24.90
2022-08-19T10:21:55.897Z,25.10
2022-08-19T10:24:29.115Z,25.20
2022-08-19T10:26:59.570Z,25.30
2022-08-19T10:29:33.093Z,25.30
2022-08-19T10:32:05.491Z,25.30
2022-08-19T10:34:48.872Z,25.40
2022-08-19T10:37:23.499Z,25.40
2022-08-19T10:39:51.413Z,25.40
2022-08-19T10:42:19.555Z,25.50
2022-08-19T10:44:52.046Z,25.80
2022-08-19T10:47:25.892Z,26.10
2022-08-19T10:50:14.927Z,26.30
2022-08-19T10:52:49.910Z,26.40
2022-08-19T10:55:49.894Z,26.40
2022-08-19T10:58:23.469Z,26.60
2022-08-19T11:00:59.384Z,26.80
2022-08-19T11:03:28.961Z,26.90
2022-08-19T11:06:07.198Z,26.90
2022-08-19T11:08:35.875Z,27.10
2022-08-19T11:11:04.225Z,27.30
2022-08-19T11:13:37.045Z,27.50
2022-08-19T11:16:07.937Z,27.50
2022-08-19T11:18:37.719Z,27.40
2022-08-19T11:21:19.979Z,27.20
2022-08-19T11:23:52.253Z,26.90
2022-08-19T11:26:20.282Z,26.80
2022-08-19T11:28:47.969Z,26.70
2022-08-19T11:31:19.700Z,26.60
2022-08-19T11:33:47.951Z,26.70
2022-08-19T11:36:16.339Z,26.70
2022-08-19T11:38:43.802Z,26.60
2022-08-19T11:41:10.582Z,26.60
2022-08-19T11:43:38.558Z,26.50
2022-08-19T11:46:11.062Z,26.40
2022-08-19T11:48:38.897Z,26.40
2022-08-19T11:51:09.606Z,26.50
2022-08-19T11:53:37.382Z,26.60
2022-08-19T11:56:06.055Z,26.70
2022-08-19T11:58:32.967Z,26.90
2022-08-19T12:00:59.802Z,27.10
2022-08-19T12:03:27.463Z,27.40
2022-08-19T12:05:54.627Z,27.50
2022-08-19T12:08:21.638Z,27.40
2022-08-19T12:10:48.518Z,27.40
2022-08-19T12:13:19.304Z,27.40
2022-08-19T12:15:48.230Z,27.50
2022-08-19T12:18:15.845Z,27.70
2022-08-19T12:20:44.758Z,27.70
2022-08-19T12:23:11.753Z,27.80
2022-08-19T12:25:49.471Z,27.80
2022-08-19T12:28:16.923Z,27.70
2022-08-19T12:30:44.329Z,27.80
2022-08-19T12:33:11.159Z,28.00
2022-08-19T12:35:45.584Z,28.20
2022-08-19T12:38:16.069Z,28.20
2022-08-19T12:40:45.975Z,28.00
2022-08-19T12:43:12.853Z,27.80
2022-08-19T12:45:39.725Z,27.60
2022-08-19T12:48:34.387Z,27.50
2022-08-19T12:50:55.196Z,27.40
2022-08-19T12:53:22.050Z,27.20
2022-08-19T12:55:48.855Z,27.00
2022-08-19T12:58:15.921Z,26.80
2022-08-19T13:00:42.984Z,26.60
2022-08-19T13:03:09.738Z,26.50
2022-08-19T13:05:37.382Z,26.50
2022-08-19T13:08:04.388Z,26.40
2022-08-19T13:10:37.454Z,26.30
2022-08-19T13:13:07.762Z,26.10
2022-08-19T13:15:36.125Z,25.90
2022-08-19T13:18:03.439Z,25.80
2022-08-19T13:20:30.328Z,25.70
2022-08-19T13:22:58.344Z,25.50
2022-08-19T13:25:26.424Z,25.40
2022-08-19T13:27:53.759Z,25.30
2022-08-19T13:30:39.741Z,25.10
2022-08-19T13:33:12.442Z,25.00
2022-08-19T13:35:51.281Z,24.90
2022-08-19T13:38:21.750Z,24.90
2022-08-19T13:40:51.448Z,24.90
2022-08-19T13:43:23.313Z,24.90
2022-08-19T13:45:56.474Z,24.90
2022-08-19T13:48:24.602Z,24.80
2022-08-19T13:50:51.448Z,24.80
2022-08-19T13:53:18.856Z,24.80
2022-08-19T13:55:45.735Z,24.80
2022-08-19T13:58:14.557Z,24.70
2022-08-19T14:00:44.363Z,24.70
2022-08-19T14:03:12.205Z,24.70
2022-08-19T14:05:39.583Z,24.80
2022-08-19T14:08:06.697Z,24.80
2022-08-19T14:10:34.301Z,24.80
2022-08-19T14:13:04.016Z,24.90
2022-08-19T14:15:31.221Z,24.90
2022-08-19T14:17:58.597Z,25.00
2022-08-19T14:20:26.458Z,25.10
2022-08-19T14:22:54.104Z,25.20
2022-08-19T14:25:25.038Z,25.20
2022-08-19T14:27:52.104Z,25.30
2022-08-19T14:30:23.876Z,25.40
2022-08-19T14:32:50.727Z,25.40
2022-08-19T14:35:17.702Z,25.50
2022-08-19T14:37:46.267Z,25.40
2022-08-19T14:40:21.568Z,25.50
2022-08-19T14:42:49.449Z,25.70
2022-08-19T14:45:16.226Z,25.90
2022-08-19T14:47:43.107Z,26.20
2022-08-19T14:50:18.178Z,26.50
2022-08-19T14:52:48.789Z,26.80
2022-08-19T14:55:19.386Z,27.10
2022-08-19T14:57:46.481Z,27.30
2022-08-19T15:00:14.474Z,27.20
2022-08-19T15:02:42.746Z,27.00
2022-08-19T15:05:09.903Z,26.70
2022-08-19T15:07:37.559Z,26.40
2022-08-19T15:10:07.809Z,26.20
2022-08-19T15:12:43.279Z,26.20
2022-08-19T15:15:14.711Z,26.20
2022-08-19T15:17:46.087Z,26.50
2022-08-19T15:20:16.459Z,26.70
2022-08-19T15:22:43.466Z,26.80
2022-08-19T15:25:12.348Z,26.80
2022-08-19T15:27:40.621Z,26.80
2022-08-19T15:30:11.922Z,26.80
2022-08-19T15:32:39.232Z,26.80
2022-08-19T15:35:07.374Z,27.00
2022-08-19T15:37:37.154Z,27.10
2022-08-19T15:40:06.348Z,27.00
2022-08-19T15:42:33.978Z,27.10
2022-08-19T15:45:02.307Z,27.10
2022-08-19T15:47:34.600Z,27.20
2022-08-19T15:50:07.012Z,27.30
2022-08-19T15:52:59.042Z,27.30
2022-08-19T15:55:34.774Z,27.40
2022-08-19T15:58:28.384Z,27.30
2022-08-19T16:01:20.443Z,27.20
2022-08-19T16:04:14.584Z,26.90
2022-08-19T16:06:55.411Z,26.70
2022-08-19T16:09:27.737Z,26.50
2022-08-19T16:12:02.848Z,26.50
2022-08-19T16:14:32.082Z,26.40
2022-08-19T16:16:59.083Z,26.30
2022-08-19T16:19:26.015Z,26.30
2022-08-19T16:21:55.916Z,26.20
2022-08-19T16:24:25.456Z,26.10
2022-08-19T16:26:52.454Z,26.00
2022-08-19T16:29:33.789Z,25.90
2022-08-19T16:32:02.769Z,25.80
2022-08-19T16:34:30.640Z,25.80
2022-08-19T16:36:57.940Z,25.70
2022-08-19T16:39:24.830Z,25.70
2022-08-19T16:41:51.739Z,25.70
2022-08-19T16:44:20.986Z,25.60
2022-08-19T16:46:58.901Z,25.50
2022-08-19T16:49:52.314Z,25.40
2022-08-19T16:52:16.081Z,25.40
2022-08-19T16:54:43.688Z,25.30
2022-08-19T16:57:12.262Z,25.40
2022-08-19T16:59:48.193Z,25.30
2022-08-19T17:02:20.467Z,25.30
2022-08-19T17:04:57.098Z,25.30
2022-08-19T17:07:29.389Z,25.20
2022-08-19T17:10:00.714Z,25.10
2022-08-19T17:12:32.248Z,25.10
2022-08-19T17:15:02.530Z,25.00
2022-08-19T17:17:30.524Z,25.00
2022-08-19T17:19:59.243Z,25.00
2022-08-19T17:22:26.740Z,25.00
2022-08-19T17:24:56.229Z,24.90
2022-08-19T17:27:25.933Z,25.00
2022-08-19T17:29:53.260Z,24.90
2022-08-19T17:32:24.856Z,24.90
2022-08-19T17:34:54.365Z,24.80
2022-08-19T17:37:21.372Z,24.80
2022-08-19T17:39:48.209Z,24.70
2022-08-19T17:42:15.291Z,24.60
2022-08-19T17:44:42.156Z,24.60
2022-08-19T17:47:12.807Z,24.60
2022-08-19T17:49:39.679Z,24.60
2022-08-19T17:52:09.906Z,24.60
2022-08-19T17:54:37.249Z,24.60
2022-08-19T17:57:04.229Z,24.60
2022-08-19T17:59:31.072Z,24.60
2022-08-19T18:01:59.591Z,24.60
2022-08-19T18:04:29.756Z,24.60
2022-08-19T18:06:56.706Z,24.70
2022-08-19T18:09:38.715Z,24.70
2022-08-19T18:12:13.945Z,24.70
2022-08-19T18:14:41.797Z,24.60
2022-08-19T18:17:13.679Z,24.60
2022-08-19T18:19:43.384Z,24.60
2022-08-19T18:22:24.425Z,24.60
2022-08-19T18:24:51.614Z,24.60
2022-08-19T18:27:18.728Z,24.60
2022-08-19T18:29:45.868Z,24.60
2022-08-19T18:32:13.187Z,24.60
2022-08-19T18:34:44.424Z,24.60
2022-08-19T18:37:11.593Z,24.60
2022-08-19T18:39:57.436Z,24.60
2022-08-19T18:42:42.853Z,24.70
2022-08-19T18:45:29.237Z,24.70
2022-08-19T18:48:26.504Z,24.70
2022-08-19T18:51:00.288Z,24.70
2022-08-19T18:53:29.989Z,24.70
2022-08-19T18:55:57.686Z,24.60
2022-08-19T18:58:28.271Z,24.60
2022-08-19T19:00:57.038Z,24.60
2022-08-19T19:03:27.678Z,24.60
2022-08-19T19:05:55.274Z,24.60
2022-08-19T19:08:27.452Z,24.60
2022-08-19T19:10:56.066Z,24.60
2022-08-19T19:13:24.317Z,24.60
2022-08-19T19:15:51.603Z,24.60
2022-08-19T19:18:18.381Z,24.60
2022-08-19T19:20:45.130Z,24.60
2022-08-19T19:23:11.897Z,24.60
2022-08-19T19:25:50.174Z,24.50
2022-08-19T19:28:25.115Z,24.50
2022-08-19T19:30:54.603Z,24.50
2022-08-19T19:33:21.702Z,24.40
2022-08-19T19:35:48.598Z,24.40
2022-08-19T19:38:15.617Z,24.40
2022-08-19T19:40:42.681Z,24.40
2022-08-19T19:43:09.673Z,24.40
2022-08-19T19:45:37.980Z,24.30
2022-08-19T19:48:05.174Z,24.30
2022-08-19T19:50:32.257Z,24.30
2022-08-19T19:52:59.081Z,24.20
2022-08-19T19:55:26.806Z,24.20
2022-08-19T19:57:54.333Z,24.10
2022-08-19T20:00:22.183Z,24.10
2022-08-19T20:02:50.970Z,24.00
2022-08-19T20:05:20.839Z,24.00
2022-08-19T20:08:14.568Z,23.90
2022-08-19T20:10:43.448Z,23.90
2022-08-19T20:13:12.378Z,23.80
2022-08-19T20:15:42.500Z,23.80
2022-08-19T20:18:11.162Z,23.70
2022-08-19T20:20:38.125Z,23.80
2022-08-19T20:23:05.269Z,23.80
2022-08-19T20:25:32.452Z,23.80
2022-08-19T20:28:01.661Z,23.80
2022-08-19T20:30:28.679Z,23.80
2022-08-19T20:32:58.999Z,23.80
2022-08-19T20:35:26.765Z,23.80
2022-08-19T20:37:58.013Z,23.80
2022-08-19T20:40:26.354Z,23.80
2022-08-19T20:42:54.362Z,23.80
2022-08-19T20:45:32.693Z,23.80
2022-08-19T20:48:03.259Z,23.80
2022-08-19T20:50:32.242Z,23.80
2022-08-19T20:52:59.386Z,23.90
2022-08-19T20:55:27.313Z,23.80
2022-08-19T20:57:54.842Z,23.80
2022-08-19T21:00:22.340Z,23.80
2022-08-19T21:02:49.140Z,23.80
2022-08-19T21:05:16.438Z,23.80
2022-08-19T21:07:43.217Z,23.80
2022-08-19T21:10:11.215Z,23.80
2022-08-19T21:12:38.672Z,23.70
2022-08-19T21:15:07.190Z,23.70
2022-08-19T21:17:34.321Z,23.70
2022-08-19T21:20:01.175Z,23.70
2022-08-19T21:22:28.551Z,23.70
2022-08-19T21:24:55.781Z,23.70
2022-08-19T21:27:22.571Z,23.70
2022-08-19T21:29:49.433Z,23.70
2022-08-19T21:32:16.876Z,23.70
2022-08-19T21:34:43.990Z,23.70
2022-08-19T21:37:19.921Z,23.70
2022-08-19T21:39:55.954Z,23.70
2022-08-19T21:42:24.107Z,23.70
2022-08-19T21:44:51.554Z,23.70
2022-08-19T21:47:18.612Z,23.70
2022-08-19T21:49:46.120Z,23.70
2022-08-19T21:52:13.419Z,23.70
2022-08-19T21:54:40.284Z,23.70
2022-08-19T21:57:10.646Z,23.70
2022-08-19T21:59:41.272Z,23.70
2022-08-19T22:02:21.019Z,23.70
2022-08-19T22:04:50.854Z,23.70
2022-08-19T22:07:19.283Z,23.70
2022-08-19T22:09:48.104Z,23.70
2022-08-19T22:12:30.846Z,23.70
2022-08-19T22:14:58.372Z,23.70
2022-08-19T22:17:27.454Z,23.70
2022-08-19T22:19:56.533Z,23.60
2022-08-19T22:22:27.574Z,23.60
2022-08-19T22:25:00.370Z,23.60
2022-08-19T23:01:08.231Z,23.40
2022-08-19T23:03:35.540Z,23.40
2022-08-19T23:06:02.990Z,23.40
2022-08-19T23:08:31.441Z,23.30
2022-08-19T23:10:58.300Z,23.40
2022-08-19T23:13:25.384Z,23.30
2022-08-19T23:15:52.264Z,23.30
2022-08-19T23:18:20.156Z,23.30
2022-08-19T23:20:47.263Z,23.30
2022-08-19T23:23:19.071Z,23.30
2022-08-19T23:25:48.780Z,23.30
2022-08-19T23:28:34.177Z,23.30
2022-08-19T23:31:02.166Z,23.30
2022-08-19T23:33:50.834Z,23.30
2022-08-19T23:36:19.938Z,23.30
2022-08-19T23:38:48.574Z,23.30
2022-08-19T23:41:17.734Z,23.30
2022-08-19T23:43:44.763Z,23.30
2022-08-19T23:46:14.073Z,23.30
2022-08-19T23:48:55.618Z,23.30
2022-08-19T23:51:22.891Z,23.30
2022-08-19T23:53:49.950Z,23.30
2022-08-19T23:56:16.838Z,23.30
2022-08-19T23:58:43.920Z,23.30
